createdAt,value
2023-01-21T00:01:48.208Z,2.37
2023-01-21T00:04:23.281Z,2.08
2023-01-21T00:06:59.178Z,2.17
2023-01-21T00:09:35.229Z,2.29
2023-01-21T00:12:12.310Z,2.25
2023-01-21T00:14:42.826Z,2.13
2023-01-21T00:17:13.338Z,2.19
2023-01-21T00:19:57.449Z,2.26
2023-01-21T00:22:28.391Z,2.26
2023-01-21T00:24:58.073Z,2.21
2023-01-21T00:27:29.189Z,2.28
2023-01-21T00:29:57.342Z,2.28
2023-01-21T00:32:29.107Z,2.14
2023-01-21T00:35:03.864Z,2.22
2023-01-21T00:37:34.947Z,2.31
2023-01-21T00:40:05.732Z,2.33
2023-01-21T00:42:38.624Z,2.19
2023-01-21T00:45:08.453Z,2.15
2023-01-21T00:47:39.494Z,2.09
2023-01-21T00:50:12.313Z,2.12
2023-01-21T00:52:43.369Z,2.17
2023-01-21T00:55:11.608Z,2.22
2023-01-21T00:57:39.502Z,2.10
2023-01-21T01:00:15.186Z,2.00
2023-01-21T01:02:44.983Z,2.02
2023-01-21T01:05:15.124Z,1.99
2023-01-21T01:07:47.265Z,1.95
2023-01-21T01:10:15.627Z,1.92
2023-01-21T01:12:44.045Z,1.90
2023-01-21T01:15:12.936Z,1.70
2023-01-21T01:17:41.410Z,1.85
2023-01-21T01:20:13.921Z,1.67
2023-01-21T01:22:44.352Z,1.63
2023-01-21T01:25:14.869Z,1.64
2023-01-21T01:27:45.847Z,1.59
2023-01-21T01:30:14.784Z,1.49
2023-01-21T01:32:44.509Z,1.45
2023-01-21T01:35:17.629Z,1.26
2023-01-21T01:37:50.217Z,1.21
2023-01-21T01:40:22.004Z,1.23
2023-01-21T01:42:52.180Z,0.87
2023-01-21T01:45:32.064Z,1.15
2023-01-21T01:48:07.984Z,1.01
2023-01-21T01:50:41.397Z,1.06
2023-01-21T01:53:25.711Z,0.98
2023-01-21T01:55:56.627Z,0.88
2023-01-21T01:58:28.075Z,1.01
2023-01-21T02:00:59.892Z,0.78
2023-01-21T02:03:46.873Z,0.51
2023-01-21T02:06:21.523Z,0.69
2023-01-21T02:08:54.304Z,0.64
2023-01-21T02:11:23.687Z,0.57
2023-01-21T02:13:54.462Z,0.63
2023-01-21T02:16:47.211Z,0.50
2023-01-21T02:20:00.927Z,0.47
2023-01-21T02:22:39.284Z,0.50
2023-01-21T02:25:50.932Z,0.27
2023-01-21T02:29:08.269Z,0.33
2023-01-21T02:32:19.757Z,0.19
2023-01-21T02:34:58.634Z,0.17
2023-01-21T02:37:40.051Z,0.01
2023-01-21T02:40:15.397Z,0.02
2023-01-21T02:42:47.950Z,-0.05
2023-01-21T02:45:26.667Z,0.03
2023-01-21T02:48:06.472Z,-0.04
2023-01-21T02:50:42.686Z,-0.12
2023-01-21T02:53:24.804Z,-0.11
2023-01-21T02:55:55.239Z,-0.19
2023-01-21T02:58:32.394Z,-0.09
2023-01-21T03:01:24.044Z,-0.21
2023-01-21T03:04:26.071Z,-0.35
2023-01-21T03:07:11.963Z,-0.28
2023-01-21T03:09:41.121Z,-0.33
2023-01-21T03:12:23.654Z,-0.28
2023-01-21T03:15:19.218Z,-0.31
2023-01-21T03:17:55.589Z,-0.28
2023-01-21T03:20:31.506Z,-0.36
2023-01-21T03:23:05.120Z,-0.61
2023-01-21T03:25:37.986Z,-0.57
2023-01-21T03:28:12.385Z,-0.62
2023-01-21T03:30:45.976Z,-0.64
2023-01-21T03:33:18.806Z,-0.65
2023-01-21T03:35:54.698Z,-0.70
2023-01-21T03:38:31.441Z,-0.69
2023-01-21T03:41:05.171Z,-0.72
2023-01-21T03:43:36.085Z,-0.74
2023-01-21T03:46:13.412Z,-0.71
2023-01-21T03:48:46.492Z,-0.70
2023-01-21T03:51:23.463Z,-0.96
2023-01-21T03:53:59.873Z,-0.83
2023-01-21T03:56:31.688Z,-0.90
2023-01-21T03:59:00.163Z,-0.93
2023-01-21T04:01:29.772Z,-0.73
2023-01-21T04:04:01.367Z,-0.83
2023-01-21T04:06:29.901Z,-0.76
2023-01-21T04:09:06.762Z,-1.00
2023-01-21T04:11:35.813Z,-1.08
2023-01-21T04:14:05.892Z,-0.97
2023-01-21T04:16:38.268Z,-1.02
2023-01-21T04:19:15.993Z,-1.00
2023-01-21T04:21:44.163Z,-0.98
2023-01-21T04:24:13.711Z,-1.03
2023-01-21T04:26:42.732Z,-0.95
2023-01-21T04:29:11.508Z,-1.05
2023-01-21T04:31:41.236Z,-1.21
2023-01-21T04:34:12.271Z,-1.23
2023-01-21T04:36:45.635Z,-1.19
2023-01-21T04:39:16.840Z,-1.42
2023-01-21T04:41:45.811Z,-1.13
2023-01-21T04:44:15.728Z,-1.13
2023-01-21T04:46:44.261Z,-1.13
2023-01-21T04:49:12.853Z,-1.15
2023-01-21T04:51:43.791Z,-1.14
2023-01-21T04:54:16.053Z,-1.18
2023-01-21T04:56:45.555Z,-1.19
2023-01-21T04:59:16.071Z,-1.14
2023-01-21T05:01:44.799Z,-1.18
2023-01-21T05:04:14.765Z,-1.17
2023-01-21T05:06:49.030Z,-1.23
2023-01-21T05:09:20.726Z,-1.16
2023-01-21T05:11:51.382Z,-1.11
2023-01-21T05:14:22.869Z,-1.18
2023-01-21T05:16:53.749Z,-1.17
2023-01-21T05:19:23.346Z,-1.06
2023-01-21T05:21:51.789Z,-1.19
2023-01-21T05:24:22.962Z,-1.01
2023-01-21T05:26:54.017Z,-1.00
2023-01-21T05:29:23.902Z,-0.99
2023-01-21T05:31:53.220Z,-1.05
2023-01-21T05:34:21.179Z,-0.96
2023-01-21T05:36:52.606Z,-1.25
2023-01-21T05:39:21.145Z,-1.09
2023-01-21T05:41:53.488Z,-1.13
2023-01-21T05:44:21.583Z,-1.20
2023-01-21T05:46:52.152Z,-1.26
2023-01-21T05:49:22.726Z,-1.19
2023-01-21T05:51:53.689Z,-1.28
2023-01-21T05:54:27.663Z,-1.32
2023-01-21T05:57:01.179Z,-1.38
2023-01-21T05:59:37.444Z,-1.26
2023-01-21T06:02:09.782Z,-1.32
2023-01-21T06:04:38.991Z,-1.30
2023-01-21T06:07:10.716Z,-1.53
2023-01-21T06:09:39.802Z,-1.33
2023-01-21T06:12:18.333Z,-1.28
2023-01-21T06:14:48.343Z,-1.34
2023-01-21T06:17:16.435Z,-1.32
2023-01-21T06:19:45.209Z,-1.27
2023-01-21T06:22:17.336Z,-1.28
2023-01-21T06:24:47.663Z,-1.34
2023-01-21T06:27:21.235Z,-1.39
2023-01-21T06:29:50.379Z,-1.17
2023-01-21T06:32:22.292Z,-1.28
2023-01-21T06:34:52.205Z,-1.39
2023-01-21T06:37:22.205Z,-1.36
2023-01-21T06:39:50.542Z,-1.30
2023-01-21T06:42:21.392Z,-1.34
2023-01-21T06:44:50.038Z,-1.32
2023-01-21T06:47:18.228Z,-1.23
2023-01-21T06:49:46.886Z,-1.35
2023-01-21T06:52:15.049Z,-1.37
2023-01-21T06:54:45.418Z,-1.36
2023-01-21T06:57:14.007Z,-1.34
2023-01-21T06:59:43.454Z,-1.20
2023-01-21T07:02:16.632Z,-1.37
2023-01-21T07:04:49.968Z,-1.42
2023-01-21T07:07:18.382Z,-1.40
2023-01-21T07:09:53.888Z,-1.29
2023-01-21T07:12:22.983Z,-1.32
2023-01-21T07:15:22.339Z,-1.32
2023-01-21T07:17:59.481Z,-1.33
2023-01-21T07:20:29.018Z,-1.40
2023-01-21T07:23:03.216Z,-1.53
2023-01-21T07:25:36.777Z,-1.49
2023-01-21T07:28:09.333Z,-1.40
2023-01-21T07:30:45.173Z,-1.34
2023-01-21T07:33:15.220Z,-1.21
2023-01-21T07:35:43.251Z,-1.33
2023-01-21T07:38:13.115Z,-1.15
2023-01-21T07:40:42.740Z,-1.00
2023-01-21T07:43:12.986Z,-1.00
2023-01-21T07:46:09.714Z,-1.05
2023-01-21T07:48:37.525Z,-0.87
2023-01-21T07:51:07.451Z,-0.96
2023-01-21T07:53:38.126Z,-0.94
2023-01-21T07:56:11.264Z,-0.86
2023-01-21T07:58:47.988Z,-0.97
2023-01-21T08:01:19.927Z,-0.96
2023-01-21T08:03:50.431Z,-0.82
2023-01-21T08:06:22.190Z,-0.85
2023-01-21T08:08:50.379Z,-0.82
2023-01-21T08:11:21.716Z,-0.79
2023-01-21T08:14:04.586Z,-0.82
2023-01-21T08:16:43.265Z,-0.82
2023-01-21T08:19:15.232Z,-0.89
2023-01-21T08:21:43.712Z,-1.03
2023-01-21T08:24:12.373Z,-0.87
2023-01-21T08:26:44.708Z,-0.59
2023-01-21T08:29:15.462Z,-0.48
2023-01-21T08:31:56.180Z,-0.37
2023-01-21T08:34:28.411Z,-0.34
2023-01-21T08:36:59.252Z,-0.34
2023-01-21T08:39:30.404Z,-0.32
2023-01-21T08:41:58.725Z,-0.30
2023-01-21T08:44:26.912Z,-0.21
2023-01-21T08:46:58.694Z,-0.31
2023-01-21T08:49:27.959Z,-0.13
2023-01-21T08:51:57.135Z,0.00
2023-01-21T08:54:24.998Z,-0.01
2023-01-21T08:56:52.741Z,-0.05
2023-01-21T08:59:28.779Z,0.03
2023-01-21T09:02:02.558Z,0.06
2023-01-21T09:04:33.576Z,0.02
2023-01-21T09:07:01.577Z,0.22
2023-01-21T09:09:29.898Z,0.10
2023-01-21T09:11:59.639Z,0.32
2023-01-21T09:14:29.073Z,0.17
2023-01-21T09:17:00.374Z,0.31
2023-01-21T09:19:40.033Z,0.21
2023-01-21T09:22:09.319Z,0.31
2023-01-21T09:24:42.796Z,0.38
2023-01-21T09:27:11.086Z,0.58
2023-01-21T09:29:42.134Z,0.63
2023-01-21T09:32:12.146Z,0.52
2023-01-21T09:34:42.185Z,0.46
2023-01-21T09:37:12.539Z,0.67
2023-01-21T09:39:43.504Z,0.51
2023-01-21T09:42:20.754Z,0.57
2023-01-21T09:44:54.529Z,0.61
2023-01-21T09:47:33.914Z,0.54
2023-01-21T09:50:06.431Z,0.65
2023-01-21T09:52:41.115Z,0.64
2023-01-21T09:55:19.759Z,0.46
2023-01-21T09:58:06.858Z,0.70
2023-01-21T10:00:43.499Z,0.64
2023-01-21T10:03:24.056Z,0.78
2023-01-21T10:06:35.358Z,0.68
2023-01-21T10:09:30.039Z,0.60
2023-01-21T10:12:21.358Z,0.88
2023-01-21T10:15:15.799Z,0.83
2023-01-21T10:17:52.677Z,0.90
2023-01-21T10:20:36.872Z,1.20
2023-01-21T10:23:09.644Z,1.37
2023-01-21T10:25:39.613Z,1.41
2023-01-21T10:28:15.301Z,1.25
2023-01-21T10:31:24.731Z,1.28
2023-01-21T10:33:58.089Z,1.30
2023-01-21T10:36:55.879Z,1.48
2023-01-21T10:39:37.045Z,1.49
2023-01-21T10:42:20.271Z,1.51
2023-01-21T10:44:58.724Z,1.54
2023-01-21T10:47:40.680Z,1.60
2023-01-21T10:50:35.731Z,1.56
2023-01-21T10:53:17.108Z,1.82
2023-01-21T10:56:08.385Z,1.95
2023-01-21T10:58:43.849Z,2.00
2023-01-21T11:01:24.671Z,1.88
2023-01-21T11:04:01.810Z,2.08
2023-01-21T11:06:35.295Z,2.16
2023-01-21T11:09:08.982Z,1.87
2023-01-21T11:11:41.097Z,1.96
2023-01-21T11:14:09.540Z,1.89
2023-01-21T11:16:44.214Z,1.69
2023-01-21T11:19:15.827Z,1.80
2023-01-21T11:22:01.983Z,1.79
2023-01-21T11:24:32.524Z,1.72
2023-01-21T11:27:04.901Z,1.76
2023-01-21T11:29:43.799Z,1.88
2023-01-21T11:32:20.718Z,1.80
2023-01-21T11:34:51.291Z,1.81
2023-01-21T11:37:25.218Z,1.96
2023-01-21T11:40:01.103Z,1.96
2023-01-21T11:42:33.842Z,1.77
2023-01-21T11:45:06.805Z,2.09
2023-01-21T11:47:41.029Z,1.95
2023-01-21T11:50:14.247Z,1.72
2023-01-21T11:52:49.253Z,1.97
2023-01-21T11:55:27.296Z,2.11
2023-01-21T11:58:02.300Z,1.96
2023-01-21T12:00:35.802Z,2.15
2023-01-21T12:03:09.924Z,2.11
2023-01-21T12:05:46.269Z,2.24
2023-01-21T12:08:24.318Z,2.28
2023-01-21T12:10:55.713Z,2.21
2023-01-21T12:13:33.757Z,2.16
2023-01-21T12:16:23.130Z,2.04
2023-01-21T12:19:16.555Z,2.11
2023-01-21T12:22:06.021Z,1.78
2023-01-21T12:24:51.119Z,2.14
2023-01-21T12:27:27.768Z,2.17
2023-01-21T12:30:09.375Z,1.96
2023-01-21T12:32:45.965Z,2.00
2023-01-21T12:35:20.159Z,2.07
2023-01-21T12:37:54.085Z,2.17
2023-01-21T12:40:30.403Z,2.47
2023-01-21T12:43:05.478Z,2.26
2023-01-21T12:45:42.406Z,1.99
2023-01-21T12:48:17.171Z,2.18
2023-01-21T12:50:54.872Z,2.48
2023-01-21T12:53:35.825Z,2.44
2023-01-21T12:56:17.743Z,2.36
2023-01-21T12:58:54.717Z,2.36
2023-01-21T13:01:42.815Z,2.63
2023-01-21T13:04:25.331Z,2.68
2023-01-21T13:07:04.659Z,2.87
2023-01-21T13:09:43.541Z,2.90
2023-01-21T13:12:19.224Z,2.87
2023-01-21T13:14:53.600Z,3.09
2023-01-21T13:17:37.780Z,2.97
2023-01-21T13:20:16.364Z,3.25
2023-01-21T13:23:01.215Z,3.21
2023-01-21T13:25:42.639Z,3.35
2023-01-21T13:28:23.873Z,3.01
2023-01-21T13:31:01.026Z,3.40
2023-01-21T13:33:52.140Z,3.41
2023-01-21T13:36:39.707Z,3.28
2023-01-21T13:39:23.954Z,3.02
2023-01-21T13:42:03.969Z,2.99
2023-01-21T13:45:15.698Z,3.07
2023-01-21T13:48:05.783Z,2.97
2023-01-21T13:50:59.196Z,2.54
2023-01-21T13:54:04.661Z,2.62
2023-01-21T13:56:48.965Z,2.62
2023-01-21T13:59:22.399Z,2.69
2023-01-21T14:01:56.728Z,2.60
2023-01-21T14:04:40.764Z,2.63
2023-01-21T14:07:14.765Z,2.46
2023-01-21T14:09:47.167Z,2.64
2023-01-21T14:12:24.486Z,2.50
2023-01-21T14:15:08.021Z,2.64
2023-01-21T14:18:12.431Z,2.43
2023-01-21T14:20:58.639Z,2.60
2023-01-21T14:23:49.459Z,2.53
2023-01-21T14:26:36.052Z,2.53
2023-01-21T14:29:17.210Z,2.47
2023-01-21T14:31:50.861Z,2.42
2023-01-21T14:34:27.079Z,2.59
2023-01-21T14:37:06.102Z,2.46
2023-01-21T14:39:50.783Z,2.58
2023-01-21T14:42:26.359Z,2.70
2023-01-21T14:45:04.557Z,2.73
2023-01-21T14:48:00.396Z,2.57
2023-01-21T14:50:56.781Z,2.62
2023-01-21T14:53:27.152Z,2.65
2023-01-21T14:56:18.046Z,2.52
2023-01-21T14:58:51.475Z,2.56
2023-01-21T15:01:42.755Z,2.72
2023-01-21T15:04:25.925Z,2.70
2023-01-21T15:06:58.390Z,2.49
2023-01-21T15:09:37.846Z,2.67
2023-01-21T15:12:17.221Z,2.68
2023-01-21T15:14:47.691Z,2.35
2023-01-21T15:18:05.878Z,2.46
2023-01-21T15:20:50.839Z,2.44
2023-01-21T15:23:31.036Z,2.48
2023-01-21T15:26:07.405Z,2.65
2023-01-21T15:28:45.089Z,2.69
2023-01-21T15:31:35.485Z,2.43
2023-01-21T15:34:17.869Z,2.37
2023-01-21T15:36:52.986Z,2.45
2023-01-21T15:39:29.203Z,2.50
2023-01-21T15:42:13.771Z,2.48
2023-01-21T15:45:00.130Z,2.52
2023-01-21T15:48:30.168Z,2.59
2023-01-21T15:51:14.005Z,2.40
2023-01-21T15:54:06.927Z,2.29
2023-01-21T15:57:02.626Z,2.34
2023-01-21T15:59:55.256Z,2.19
2023-01-21T16:02:28.959Z,2.31
2023-01-21T16:05:16.792Z,2.32
2023-01-21T16:08:03.217Z,2.33
2023-01-21T16:10:39.169Z,2.29
2023-01-21T16:13:16.439Z,2.41
2023-01-21T16:16:03.427Z,2.22
2023-01-21T16:18:49.380Z,2.35
2023-01-21T16:21:22.938Z,2.31
2023-01-21T16:23:54.111Z,2.18
2023-01-21T16:26:31.857Z,2.20
2023-01-21T16:29:16.423Z,2.14
2023-01-21T16:32:01.250Z,2.20
2023-01-21T16:34:44.132Z,2.32
2023-01-21T16:37:17.492Z,2.18
2023-01-21T16:39:51.207Z,2.31
2023-01-21T16:42:29.449Z,2.30
2023-01-21T16:45:00.355Z,2.25
2023-01-21T16:47:34.630Z,2.23
2023-01-21T16:50:07.704Z,2.31
2023-01-21T16:52:36.073Z,2.18
2023-01-21T16:55:08.544Z,2.24
2023-01-21T16:57:38.522Z,2.29
2023-01-21T17:00:33.584Z,2.36
2023-01-21T17:03:04.881Z,2.26
2023-01-21T17:05:37.068Z,2.11
2023-01-21T17:08:14.961Z,2.18
2023-01-21T17:10:59.873Z,2.21
2023-01-21T17:13:38.076Z,2.08
2023-01-21T17:16:08.338Z,2.35
2023-01-21T17:18:43.863Z,2.33
2023-01-21T17:21:16.545Z,2.16
2023-01-21T17:23:52.798Z,2.14
2023-01-21T17:26:25.045Z,2.09
2023-01-21T17:28:57.790Z,2.17
2023-01-21T17:31:33.438Z,2.12
2023-01-21T17:34:09.185Z,2.10
2023-01-21T17:36:43.970Z,2.15
2023-01-21T17:39:19.291Z,2.06
2023-01-21T17:41:49.534Z,2.10
2023-01-21T17:44:20.698Z,2.11
2023-01-21T17:46:54.353Z,1.99
2023-01-21T17:49:31.087Z,2.04
2023-01-21T17:52:11.189Z,2.06
2023-01-21T17:54:39.259Z,1.94
2023-01-21T17:57:09.124Z,2.12
2023-01-21T17:59:46.987Z,2.16
2023-01-21T18:02:19.691Z,2.26
2023-01-21T18:04:49.687Z,2.17
2023-01-21T18:07:25.638Z,2.32
2023-01-21T18:10:00.079Z,2.10
2023-01-21T18:12:31.229Z,2.01
2023-01-21T18:15:01.195Z,2.11
2023-01-21T18:17:30.060Z,2.08
2023-01-21T18:20:00.221Z,2.09
2023-01-21T18:22:30.546Z,1.90
2023-01-21T18:25:02.888Z,2.18
2023-01-21T18:27:31.879Z,2.20
2023-01-21T18:30:02.213Z,2.35
2023-01-21T18:32:31.404Z,2.32
2023-01-21T18:35:11.155Z,2.45
2023-01-21T18:37:40.375Z,2.33
2023-01-21T18:40:17.777Z,2.24
2023-01-21T18:42:50.840Z,2.15
2023-01-21T18:45:21.059Z,2.31
2023-01-21T18:47:51.565Z,2.14
2023-01-21T18:50:26.866Z,2.37
2023-01-21T18:52:59.675Z,2.14
2023-01-21T18:55:30.923Z,2.31
2023-01-21T18:58:06.893Z,2.23
2023-01-21T19:00:39.799Z,2.30
2023-01-21T19:03:17.972Z,2.34
2023-01-21T19:05:48.002Z,2.29
2023-01-21T19:08:22.090Z,2.42
2023-01-21T19:10:52.765Z,2.34
2023-01-21T19:13:23.735Z,2.56
2023-01-21T19:15:56.139Z,2.54
2023-01-21T19:18:34.102Z,2.69
2023-01-21T19:21:10.353Z,2.77
2023-01-21T19:23:40.278Z,2.68
2023-01-21T19:26:12.316Z,2.76
2023-01-21T19:28:41.674Z,2.72
2023-01-21T19:31:20.387Z,2.55
2023-01-21T19:33:52.336Z,2.70
2023-01-21T19:36:29.434Z,2.55
2023-01-21T19:39:02.371Z,2.59
2023-01-21T19:41:30.556Z,2.91
2023-01-21T19:43:58.819Z,2.56
2023-01-21T19:46:28.986Z,2.61
2023-01-21T19:49:00.166Z,2.69
2023-01-21T19:51:32.192Z,2.68
2023-01-21T19:54:06.130Z,2.70
2023-01-21T19:56:36.208Z,2.82
2023-01-21T19:59:06.875Z,2.84
2023-01-21T20:01:35.192Z,2.84
2023-01-21T20:04:05.461Z,2.83
2023-01-21T20:06:42.667Z,2.99
2023-01-21T20:09:17.910Z,2.89
2023-01-21T20:11:49.359Z,2.92
2023-01-21T20:14:17.138Z,2.82
2023-01-21T20:16:50.898Z,2.77
2023-01-21T20:19:26.148Z,2.70
2023-01-21T20:22:02.044Z,2.90
2023-01-21T20:24:36.127Z,2.94
2023-01-21T20:27:08.631Z,2.85
2023-01-21T20:29:49.509Z,2.96
2023-01-21T20:32:26.245Z,2.82
2023-01-21T20:34:54.353Z,3.03
2023-01-21T20:37:27.885Z,2.78
2023-01-21T20:39:57.040Z,2.73
2023-01-21T20:42:27.386Z,2.82
2023-01-21T20:45:02.300Z,2.65
2023-01-21T20:47:49.641Z,2.77
2023-01-21T20:50:27.381Z,2.82
2023-01-21T20:53:01.072Z,2.92
2023-01-21T20:55:34.821Z,2.91
2023-01-21T20:58:04.285Z,2.93
2023-01-21T21:00:37.120Z,2.69
2023-01-21T21:03:08.148Z,2.72
2023-01-21T21:05:38.952Z,2.69
2023-01-21T21:08:14.902Z,2.84
2023-01-21T21:10:44.809Z,2.64
2023-01-21T21:13:13.212Z,2.74
2023-01-21T21:15:46.654Z,2.73
2023-01-21T21:18:20.563Z,2.87
2023-01-21T21:20:48.539Z,2.85
2023-01-21T21:23:24.781Z,2.74
2023-01-21T21:25:53.354Z,2.64
2023-01-21T21:28:36.108Z,2.58
2023-01-21T21:31:05.336Z,2.47
2023-01-21T21:33:36.135Z,2.51
2023-01-21T21:36:04.236Z,2.41
2023-01-21T21:38:36.389Z,2.45
2023-01-21T21:41:28.217Z,2.42
2023-01-21T21:43:57.556Z,2.22
2023-01-21T21:46:44.053Z,2.29
2023-01-21T21:49:15.665Z,2.34
2023-01-21T21:51:45.909Z,2.24
2023-01-21T21:54:21.284Z,2.31
2023-01-21T21:56:52.166Z,2.09
2023-01-21T21:59:22.952Z,2.33
2023-01-21T22:02:00.668Z,2.29
2023-01-21T22:04:30.235Z,2.38
2023-01-21T22:07:03.628Z,2.35
2023-01-21T22:09:35.908Z,2.28
2023-01-21T22:12:04.358Z,2.22
2023-01-21T22:14:34.863Z,2.37
2023-01-21T22:17:09.164Z,2.33
2023-01-21T22:19:38.017Z,2.40
2023-01-21T22:22:09.308Z,2.46
2023-01-21T22:25:04.195Z,2.35
2023-01-21T22:27:32.513Z,2.33
2023-01-21T22:30:02.416Z,2.24
2023-01-21T22:32:32.571Z,2.34
2023-01-21T22:35:09.258Z,2.34
2023-01-21T22:37:41.380Z,2.45
2023-01-21T22:40:25.874Z,2.43
2023-01-21T22:42:55.826Z,2.38
2023-01-21T22:45:37.436Z,2.26
2023-01-21T22:48:07.557Z,2.29
2023-01-21T22:50:39.787Z,2.34
2023-01-21T22:53:08.927Z,2.32
2023-01-21T22:55:41.275Z,2.32
2023-01-21T22:58:09.081Z,2.28
2023-01-21T23:00:40.741Z,2.34
2023-01-21T23:03:11.069Z,2.31
2023-01-21T23:05:40.948Z,2.23
2023-01-21T23:08:08.926Z,2.42
2023-01-21T23:10:40.553Z,2.32
2023-01-21T23:13:12.729Z,2.37
2023-01-21T23:15:44.251Z,2.43
2023-01-21T23:18:21.379Z,1.99
2023-01-21T23:20:49.536Z,2.21
2023-01-21T23:23:20.651Z,2.20
2023-01-21T23:25:51.960Z,2.23
2023-01-21T23:28:20.009Z,2.16
2023-01-21T23:30:52.029Z,2.26
2023-01-21T23:33:34.674Z,2.25
2023-01-21T23:36:03.141Z,2.40
2023-01-21T23:38:33.234Z,2.23
2023-01-21T23:41:09.290Z,2.09
2023-01-21T23:43:38.923Z,2.15
2023-01-21T23:46:09.014Z,2.24
2023-01-21T23:48:38.272Z,2.22
2023-01-21T23:51:09.370Z,2.14
2023-01-21T23:53:39.389Z,2.22
2023-01-21T23:56:13.636Z,2.16
2023-01-21T23:58:46.071Z,2.28
